sensor_id;sensor_type;location;lat;lon;timestamp;P1;durP1;ratioP1;P2;durP2;ratioP2
14007;SDS011;61651;45.508;12.232;2022-09-09T00:02:41;3.30;;;2.70;;
14007;SDS011;61651;45.508;12.232;2022-09-09T00:05:50;4.45;;;3.08;;
14007;SDS011;61651;45.508;12.232;2022-09-09T00:09:01;5.90;;;3.05;;
14007;SDS011;61651;45.508;12.232;2022-09-09T00:12:10;3.75;;;3.05;;
14007;SDS011;61651;45.508;12.232;2022-09-09T00:15:15;3.38;;;2.83;;
14007;SDS011;61651;45.508;12.232;2022-09-09T00:18:23;4.43;;;3.10;;
14007;SDS011;61651;45.508;12.232;2022-09-09T00:21:30;3.03;;;2.83;;
14007;SDS011;61651;45.508;12.232;2022-09-09T00:24:38;3.92;;;3.53;;
14007;SDS011;61651;45.508;12.232;2022-09-09T00:27:44;3.13;;;2.53;;
14007;SDS011;61651;45.508;12.232;2022-09-09T00:30:48;4.03;;;3.13;;
14007;SDS011;61651;45.508;12.232;2022-09-09T00:33:51;3.60;;;2.90;;
14007;SDS011;61651;45.508;12.232;2022-09-09T00:36:55;4.85;;;3.22;;
14007;SDS011;61651;45.508;12.232;2022-09-09T00:39:59;4.78;;;3.40;;
14007;SDS011;61651;45.508;12.232;2022-09-09T00:43:14;4.90;;;3.22;;
14007;SDS011;61651;45.508;12.232;2022-09-09T00:46:38;2.95;;;2.65;;
14007;SDS011;61651;45.508;12.232;2022-09-09T00:49:52;4.07;;;2.92;;
14007;SDS011;61651;45.508;12.232;2022-09-09T00:56:30;3.13;;;2.83;;
14007;SDS011;61651;45.508;12.232;2022-09-09T00:59:45;3.08;;;2.78;;
14007;SDS011;61651;45.508;12.232;2022-09-09T01:02:58;3.40;;;3.10;;
14007;SDS011;61651;45.508;12.232;2022-09-09T01:06:14;2.88;;;2.67;;
14007;SDS011;61651;45.508;12.232;2022-09-09T01:09:21;3.08;;;2.88;;
14007;SDS011;61651;45.508;12.232;2022-09-09T01:12:33;3.10;;;2.60;;
14007;SDS011;61651;45.508;12.232;2022-09-09T01:15:40;3.08;;;2.70;;
14007;SDS011;61651;45.508;12.232;2022-09-09T01:18:47;5.68;;;3.17;;
14007;SDS011;61651;45.508;12.232;2022-09-09T01:21:56;4.20;;;2.88;;
14007;SDS011;61651;45.508;12.232;2022-09-09T01:25:18;4.15;;;3.28;;
14007;SDS011;61651;45.508;12.232;2022-09-09T01:28:30;3.65;;;2.75;;
14007;SDS011;61651;45.508;12.232;2022-09-09T01:31:36;3.80;;;2.95;;
14007;SDS011;61651;45.508;12.232;2022-09-09T01:34:41;3.47;;;2.72;;
14007;SDS011;61651;45.508;12.232;2022-09-09T01:37:43;3.78;;;3.25;;
14007;SDS011;61651;45.508;12.232;2022-09-09T01:40:45;3.97;;;2.67;;
14007;SDS011;61651;45.508;12.232;2022-09-09T01:43:48;3.28;;;2.40;;
14007;SDS011;61651;45.508;12.232;2022-09-09T01:46:51;6.50;;;2.70;;
14007;SDS011;61651;45.508;12.232;2022-09-09T01:49:53;2.50;;;2.30;;
14007;SDS011;61651;45.508;12.232;2022-09-09T01:52:56;6.43;;;2.72;;
14007;SDS011;61651;45.508;12.232;2022-09-09T01:56:02;3.70;;;2.65;;
14007;SDS011;61651;45.508;12.232;2022-09-09T01:59:23;4.43;;;2.67;;
14007;SDS011;61651;45.508;12.232;2022-09-09T02:02:35;3.08;;;2.78;;
14007;SDS011;61651;45.508;12.232;2022-09-09T02:05:41;2.53;;;2.30;;
14007;SDS011;61651;45.508;12.232;2022-09-09T02:08:47;2.70;;;2.35;;
14007;SDS011;61651;45.508;12.232;2022-09-09T02:11:52;3.40;;;2.50;;
14007;SDS011;61651;45.508;12.232;2022-09-09T02:15:05;2.70;;;2.50;;
14007;SDS011;61651;45.508;12.232;2022-09-09T02:18:12;4.72;;;2.78;;
14007;SDS011;61651;45.508;12.232;2022-09-09T02:21:19;4.90;;;2.95;;
14007;SDS011;61651;45.508;12.232;2022-09-09T02:24:22;4.65;;;2.63;;
14007;SDS011;61651;45.508;12.232;2022-09-09T02:27:24;3.70;;;2.60;;
14007;SDS011;61651;45.508;12.232;2022-09-09T02:30:28;3.25;;;2.55;;
14007;SDS011;61651;45.508;12.232;2022-09-09T02:33:35;2.88;;;2.47;;
14007;SDS011;61651;45.508;12.232;2022-09-09T02:36:40;4.35;;;2.72;;
14007;SDS011;61651;45.508;12.232;2022-09-09T02:39:44;2.83;;;2.53;;
14007;SDS011;61651;45.508;12.232;2022-09-09T02:42:47;4.13;;;2.60;;
14007;SDS011;61651;45.508;12.232;2022-09-09T02:45:51;3.42;;;2.50;;
14007;SDS011;61651;45.508;12.232;2022-09-09T02:49:06;3.88;;;2.67;;
14007;SDS011;61651;45.508;12.232;2022-09-09T02:52:13;3.85;;;2.40;;
14007;SDS011;61651;45.508;12.232;2022-09-09T02:55:17;5.75;;;2.63;;
14007;SDS011;61651;45.508;12.232;2022-09-09T02:58:24;3.58;;;2.55;;
14007;SDS011;61651;45.508;12.232;2022-09-09T03:01:28;6.13;;;2.70;;
14007;SDS011;61651;45.508;12.232;2022-09-09T03:04:30;5.20;;;2.65;;
14007;SDS011;61651;45.508;12.232;2022-09-09T03:07:32;4.60;;;2.60;;
14007;SDS011;61651;45.508;12.232;2022-09-09T03:10:35;3.80;;;2.38;;
14007;SDS011;61651;45.508;12.232;2022-09-09T03:13:37;6.03;;;2.22;;
14007;SDS011;61651;45.508;12.232;2022-09-09T03:16:40;4.05;;;2.50;;
14007;SDS011;61651;45.508;12.232;2022-09-09T03:19:43;3.97;;;2.45;;
14007;SDS011;61651;45.508;12.232;2022-09-09T03:22:45;3.30;;;2.42;;
14007;SDS011;61651;45.508;12.232;2022-09-09T03:25:47;2.65;;;2.10;;
14007;SDS011;61651;45.508;12.232;2022-09-09T03:28:49;3.63;;;2.40;;
14007;SDS011;61651;45.508;12.232;2022-09-09T03:31:53;3.22;;;2.20;;
14007;SDS011;61651;45.508;12.232;2022-09-09T03:34:55;2.95;;;2.75;;
14007;SDS011;61651;45.508;12.232;2022-09-09T03:37:57;4.65;;;4.15;;
14007;SDS011;61651;45.508;12.232;2022-09-09T03:41:00;2.88;;;2.65;;
14007;SDS011;61651;45.508;12.232;2022-09-09T03:44:03;4.00;;;3.05;;
14007;SDS011;61651;45.508;12.232;2022-09-09T03:47:07;3.30;;;2.67;;
14007;SDS011;61651;45.508;12.232;2022-09-09T03:50:09;3.40;;;2.72;;
14007;SDS011;61651;45.508;12.232;2022-09-09T03:53:11;4.65;;;2.83;;
14007;SDS011;61651;45.508;12.232;2022-09-09T03:56:13;4.50;;;2.90;;
14007;SDS011;61651;45.508;12.232;2022-09-09T03:59:15;4.32;;;2.90;;
14007;SDS011;61651;45.508;12.232;2022-09-09T04:02:19;8.23;;;3.22;;
14007;SDS011;61651;45.508;12.232;2022-09-09T04:05:21;6.32;;;3.20;;
14007;SDS011;61651;45.508;12.232;2022-09-09T04:08:23;3.63;;;3.00;;
14007;SDS011;61651;45.508;12.232;2022-09-09T04:11:26;4.22;;;3.20;;
14007;SDS011;61651;45.508;12.232;2022-09-09T04:14:28;3.80;;;2.97;;
14007;SDS011;61651;45.508;12.232;2022-09-09T04:17:31;5.15;;;2.85;;
14007;SDS011;61651;45.508;12.232;2022-09-09T04:20:33;4.32;;;3.10;;
14007;SDS011;61651;45.508;12.232;2022-09-09T04:23:35;4.82;;;3.35;;
14007;SDS011;61651;45.508;12.232;2022-09-09T04:26:37;3.33;;;3.00;;
14007;SDS011;61651;45.508;12.232;2022-09-09T04:29:39;5.10;;;2.53;;
14007;SDS011;61651;45.508;12.232;2022-09-09T04:32:42;4.60;;;3.40;;
14007;SDS011;61651;45.508;12.232;2022-09-09T04:35:45;4.88;;;3.00;;
14007;SDS011;61651;45.508;12.232;2022-09-09T04:38:48;7.25;;;3.80;;
14007;SDS011;61651;45.508;12.232;2022-09-09T04:41:50;3.92;;;3.50;;
14007;SDS011;61651;45.508;12.232;2022-09-09T04:44:53;3.80;;;3.40;;
14007;SDS011;61651;45.508;12.232;2022-09-09T04:47:58;4.78;;;3.47;;
14007;SDS011;61651;45.508;12.232;2022-09-09T04:51:00;6.40;;;3.47;;
14007;SDS011;61651;45.508;12.232;2022-09-09T04:54:05;4.65;;;3.22;;
14007;SDS011;61651;45.508;12.232;2022-09-09T04:57:07;4.45;;;3.58;;
14007;SDS011;61651;45.508;12.232;2022-09-09T05:00:11;6.78;;;3.63;;
14007;SDS011;61651;45.508;12.232;2022-09-09T05:03:15;4.07;;;3.40;;
14007;SDS011;61651;45.508;12.232;2022-09-09T05:06:18;7.93;;;4.10;;
14007;SDS011;61651;45.508;12.232;2022-09-09T05:09:21;3.60;;;3.30;;
14007;SDS011;61651;45.508;12.232;2022-09-09T05:12:23;3.40;;;3.10;;
14007;SDS011;61651;45.508;12.232;2022-09-09T05:15:25;4.75;;;4.32;;
14007;SDS011;61651;45.508;12.232;2022-09-09T05:18:29;7.15;;;3.30;;
14007;SDS011;61651;45.508;12.232;2022-09-09T05:21:30;4.50;;;3.28;;
14007;SDS011;61651;45.508;12.232;2022-09-09T05:24:32;5.03;;;3.25;;
14007;SDS011;61651;45.508;12.232;2022-09-09T05:27:35;4.07;;;3.63;;
14007;SDS011;61651;45.508;12.232;2022-09-09T05:30:37;4.38;;;3.00;;
14007;SDS011;61651;45.508;12.232;2022-09-09T05:33:41;5.72;;;3.20;;
14007;SDS011;61651;45.508;12.232;2022-09-09T05:36:45;3.63;;;3.28;;
14007;SDS011;61651;45.508;12.232;2022-09-09T05:39:48;3.92;;;2.95;;
14007;SDS011;61651;45.508;12.232;2022-09-09T05:42:50;6.35;;;3.05;;
14007;SDS011;61651;45.508;12.232;2022-09-09T05:46:03;5.90;;;3.53;;
14007;SDS011;61651;45.508;12.232;2022-09-09T05:49:07;4.57;;;3.28;;
14007;SDS011;61651;45.508;12.232;2022-09-09T05:52:10;3.50;;;2.85;;
14007;SDS011;61651;45.508;12.232;2022-09-09T05:55:12;6.88;;;3.05;;
14007;SDS011;61651;45.508;12.232;2022-09-09T05:58:14;3.15;;;2.78;;
14007;SDS011;61651;45.508;12.232;2022-09-09T06:01:18;6.05;;;3.05;;
14007;SDS011;61651;45.508;12.232;2022-09-09T06:04:22;6.57;;;3.58;;
14007;SDS011;61651;45.508;12.232;2022-09-09T06:07:36;3.22;;;2.72;;
14007;SDS011;61651;45.508;12.232;2022-09-09T06:10:42;3.25;;;2.90;;
14007;SDS011;61651;45.508;12.232;2022-09-09T06:13:44;3.30;;;2.97;;
14007;SDS011;61651;45.508;12.232;2022-09-09T06:16:46;3.42;;;3.13;;
14007;SDS011;61651;45.508;12.232;2022-09-09T06:19:49;3.80;;;3.08;;
14007;SDS011;61651;45.508;12.232;2022-09-09T06:22:51;5.15;;;2.90;;
14007;SDS011;61651;45.508;12.232;2022-09-09T06:26:00;4.43;;;3.03;;
14007;SDS011;61651;45.508;12.232;2022-09-09T06:29:05;6.75;;;3.20;;
14007;SDS011;61651;45.508;12.232;2022-09-09T06:32:07;5.03;;;2.85;;
14007;SDS011;61651;45.508;12.232;2022-09-09T06:35:11;3.25;;;2.78;;
14007;SDS011;61651;45.508;12.232;2022-09-09T06:38:13;3.85;;;3.13;;
14007;SDS011;61651;45.508;12.232;2022-09-09T06:41:16;4.65;;;3.03;;
14007;SDS011;61651;45.508;12.232;2022-09-09T06:44:19;4.78;;;3.55;;
14007;SDS011;61651;45.508;12.232;2022-09-09T06:47:22;4.20;;;2.90;;
14007;SDS011;61651;45.508;12.232;2022-09-09T06:50:26;5.50;;;3.00;;
14007;SDS011;61651;45.508;12.232;2022-09-09T06:53:28;4.93;;;2.90;;
14007;SDS011;61651;45.508;12.232;2022-09-09T06:56:30;3.90;;;2.70;;
14007;SDS011;61651;45.508;12.232;2022-09-09T06:59:33;7.40;;;3.22;;
14007;SDS011;61651;45.508;12.232;2022-09-09T07:02:35;5.20;;;2.85;;
14007;SDS011;61651;45.508;12.232;2022-09-09T07:05:41;3.45;;;2.70;;
14007;SDS011;61651;45.508;12.232;2022-09-09T07:08:47;3.15;;;2.60;;
14007;SDS011;61651;45.508;12.232;2022-09-09T07:11:51;5.03;;;2.92;;
14007;SDS011;61651;45.508;12.232;2022-09-09T07:14:53;5.20;;;3.30;;
14007;SDS011;61651;45.508;12.232;2022-09-09T07:17:55;5.07;;;3.17;;
14007;SDS011;61651;45.508;12.232;2022-09-09T07:21:03;5.00;;;3.17;;
14007;SDS011;61651;45.508;12.232;2022-09-09T07:24:06;4.03;;;3.10;;
14007;SDS011;61651;45.508;12.232;2022-09-09T07:27:10;3.97;;;3.00;;
14007;SDS011;61651;45.508;12.232;2022-09-09T07:30:12;14.35;;;3.47;;
14007;SDS011;61651;45.508;12.232;2022-09-09T07:33:14;3.95;;;2.50;;
14007;SDS011;61651;45.508;12.232;2022-09-09T07:36:19;4.25;;;2.50;;
14007;SDS011;61651;45.508;12.232;2022-09-09T07:39:22;4.70;;;2.45;;
14007;SDS011;61651;45.508;12.232;2022-09-09T07:42:24;5.10;;;2.72;;
14007;SDS011;61651;45.508;12.232;2022-09-09T07:45:26;8.77;;;3.00;;
14007;SDS011;61651;45.508;12.232;2022-09-09T07:48:29;5.35;;;2.50;;
14007;SDS011;61651;45.508;12.232;2022-09-09T07:51:34;10.38;;;2.60;;
14007;SDS011;61651;45.508;12.232;2022-09-09T07:54:36;4.70;;;2.90;;
14007;SDS011;61651;45.508;12.232;2022-09-09T07:57:38;3.88;;;2.95;;
14007;SDS011;61651;45.508;12.232;2022-09-09T08:00:40;4.93;;;3.15;;
14007;SDS011;61651;45.508;12.232;2022-09-09T08:03:43;4.82;;;2.40;;
14007;SDS011;61651;45.508;12.232;2022-09-09T08:06:48;6.68;;;2.60;;
14007;SDS011;61651;45.508;12.232;2022-09-09T08:09:52;3.25;;;2.15;;
14007;SDS011;61651;45.508;12.232;2022-09-09T08:12:55;4.00;;;2.28;;
14007;SDS011;61651;45.508;12.232;2022-09-09T08:16:03;9.77;;;2.67;;
14007;SDS011;61651;45.508;12.232;2022-09-09T08:19:06;6.85;;;2.80;;
14007;SDS011;61651;45.508;12.232;2022-09-09T08:22:10;4.00;;;2.45;;
14007;SDS011;61651;45.508;12.232;2022-09-09T08:25:12;6.18;;;2.58;;
14007;SDS011;61651;45.508;12.232;2022-09-09T08:28:14;5.28;;;2.63;;
14007;SDS011;61651;45.508;12.232;2022-09-09T08:31:17;7.28;;;2.45;;
14007;SDS011;61651;45.508;12.232;2022-09-09T08:34:21;2.60;;;2.40;;
14007;SDS011;61651;45.508;12.232;2022-09-09T08:37:24;7.30;;;2.60;;
14007;SDS011;61651;45.508;12.232;2022-09-09T08:40:28;4.68;;;2.63;;
14007;SDS011;61651;45.508;12.232;2022-09-09T08:43:39;4.70;;;2.30;;
14007;SDS011;61651;45.508;12.232;2022-09-09T08:46:45;3.03;;;2.40;;
14007;SDS011;61651;45.508;12.232;2022-09-09T08:50:02;4.32;;;2.13;;
14007;SDS011;61651;45.508;12.232;2022-09-09T08:53:17;3.55;;;2.30;;
14007;SDS011;61651;45.508;12.232;2022-09-09T08:56:22;3.15;;;2.30;;
14007;SDS011;61651;45.508;12.232;2022-09-09T08:59:26;4.30;;;2.75;;
14007;SDS011;61651;45.508;12.232;2022-09-09T09:02:31;3.47;;;2.08;;
14007;SDS011;61651;45.508;12.232;2022-09-09T09:05:42;5.65;;;2.55;;
14007;SDS011;61651;45.508;12.232;2022-09-09T09:08:53;4.20;;;2.15;;
14007;SDS011;61651;45.508;12.232;2022-09-09T09:12:02;2.92;;;2.08;;
14007;SDS011;61651;45.508;12.232;2022-09-09T09:15:11;2.58;;;2.00;;
14007;SDS011;61651;45.508;12.232;2022-09-09T09:18:24;4.57;;;2.78;;
14007;SDS011;61651;45.508;12.232;2022-09-09T09:21:29;3.67;;;2.13;;
14007;SDS011;61651;45.508;12.232;2022-09-09T09:24:41;2.67;;;2.08;;
14007;SDS011;61651;45.508;12.232;2022-09-09T09:28:02;2.92;;;2.40;;
14007;SDS011;61651;45.508;12.232;2022-09-09T09:31:12;3.53;;;2.70;;
14007;SDS011;61651;45.508;12.232;2022-09-09T09:34:14;3.08;;;2.03;;
14007;SDS011;61651;45.508;12.232;2022-09-09T09:37:17;4.50;;;2.00;;
14007;SDS011;61651;45.508;12.232;2022-09-09T09:40:29;3.55;;;2.20;;
14007;SDS011;61651;45.508;12.232;2022-09-09T09:43:32;3.33;;;2.30;;
14007;SDS011;61651;45.508;12.232;2022-09-09T09:46:35;3.72;;;2.40;;
14007;SDS011;61651;45.508;12.232;2022-09-09T09:49:37;4.95;;;2.47;;
14007;SDS011;61651;45.508;12.232;2022-09-09T09:52:39;3.75;;;2.50;;
14007;SDS011;61651;45.508;12.232;2022-09-09T09:55:47;2.67;;;2.20;;
14007;SDS011;61651;45.508;12.232;2022-09-09T09:58:54;3.35;;;2.03;;
14007;SDS011;61651;45.508;12.232;2022-09-09T10:02:05;3.20;;;1.98;;
14007;SDS011;61651;45.508;12.232;2022-09-09T10:05:15;3.17;;;2.05;;
14007;SDS011;61651;45.508;12.232;2022-09-09T10:08:18;3.33;;;2.17;;
14007;SDS011;61651;45.508;12.232;2022-09-09T10:11:25;5.93;;;2.30;;
14007;SDS011;61651;45.508;12.232;2022-09-09T10:14:46;2.00;;;1.88;;
14007;SDS011;61651;45.508;12.232;2022-09-09T10:17:56;3.55;;;2.53;;
14007;SDS011;61651;45.508;12.232;2022-09-09T10:21:14;7.18;;;2.63;;
14007;SDS011;61651;45.508;12.232;2022-09-09T10:24:36;4.60;;;2.53;;
14007;SDS011;61651;45.508;12.232;2022-09-09T10:27:55;2.45;;;2.05;;
14007;SDS011;61651;45.508;12.232;2022-09-09T10:31:14;2.58;;;2.08;;
14007;SDS011;61651;45.508;12.232;2022-09-09T10:34:26;3.08;;;2.30;;
14007;SDS011;61651;45.508;12.232;2022-09-09T10:38:10;3.83;;;2.60;;
14007;SDS011;61651;45.508;12.232;2022-09-09T10:41:16;2.70;;;2.50;;
14007;SDS011;61651;45.508;12.232;2022-09-09T10:44:30;4.75;;;2.97;;
14007;SDS011;61651;45.508;12.232;2022-09-09T10:47:58;2.42;;;2.22;;
14007;SDS011;61651;45.508;12.232;2022-09-09T10:51:22;3.63;;;2.08;;
14007;SDS011;61651;45.508;12.232;2022-09-09T10:54:32;3.10;;;2.38;;
14007;SDS011;61651;45.508;12.232;2022-09-09T10:57:47;3.28;;;2.30;;
14007;SDS011;61651;45.508;12.232;2022-09-09T11:00:54;3.08;;;2.20;;
14007;SDS011;61651;45.508;12.232;2022-09-09T11:04:03;2.67;;;1.98;;
14007;SDS011;61651;45.508;12.232;2022-09-09T11:07:13;1.98;;;1.85;;
14007;SDS011;61651;45.508;12.232;2022-09-09T11:10:28;9.15;;;2.70;;
14007;SDS011;61651;45.508;12.232;2022-09-09T11:13:37;2.10;;;1.88;;
14007;SDS011;61651;45.508;12.232;2022-09-09T11:16:46;4.25;;;2.03;;
14007;SDS011;61651;45.508;12.232;2022-09-09T11:19:50;2.60;;;1.90;;
14007;SDS011;61651;45.508;12.232;2022-09-09T11:22:54;2.63;;;2.00;;
14007;SDS011;61651;45.508;12.232;2022-09-09T11:26:01;2.38;;;1.70;;
14007;SDS011;61651;45.508;12.232;2022-09-09T11:29:12;3.65;;;2.15;;
14007;SDS011;61651;45.508;12.232;2022-09-09T11:32:40;3.78;;;1.63;;
14007;SDS011;61651;45.508;12.232;2022-09-09T11:36:16;1.75;;;1.60;;
14007;SDS011;61651;45.508;12.232;2022-09-09T11:39:36;1.75;;;1.60;;
14007;SDS011;61651;45.508;12.232;2022-09-09T11:42:47;4.32;;;2.00;;
14007;SDS011;61651;45.508;12.232;2022-09-09T11:45:51;2.55;;;2.30;;
14007;SDS011;61651;45.508;12.232;2022-09-09T11:48:59;3.60;;;1.95;;
14007;SDS011;61651;45.508;12.232;2022-09-09T11:52:10;2.85;;;2.00;;
14007;SDS011;61651;45.508;12.232;2022-09-09T11:55:23;2.92;;;2.10;;
14007;SDS011;61651;45.508;12.232;2022-09-09T11:58:27;2.33;;;2.10;;
14007;SDS011;61651;45.508;12.232;2022-09-09T12:01:34;4.05;;;2.53;;
14007;SDS011;61651;45.508;12.232;2022-09-09T12:04:49;4.57;;;2.13;;
14007;SDS011;61651;45.508;12.232;2022-09-09T12:07:58;2.28;;;2.05;;
14007;SDS011;61651;45.508;12.232;2022-09-09T12:11:02;5.07;;;2.28;;
14007;SDS011;61651;45.508;12.232;2022-09-09T12:14:04;3.00;;;2.20;;
14007;SDS011;61651;45.508;12.232;2022-09-09T12:17:20;1.80;;;1.70;;
14007;SDS011;61651;45.508;12.232;2022-09-09T12:20:30;1.80;;;1.70;;
14007;SDS011;61651;45.508;12.232;2022-09-09T12:23:37;3.33;;;2.10;;
14007;SDS011;61651;45.508;12.232;2022-09-09T12:26:46;3.72;;;1.80;;
14007;SDS011;61651;45.508;12.232;2022-09-09T12:29:55;2.47;;;2.25;;
14007;SDS011;61651;45.508;12.232;2022-09-09T12:33:02;2.83;;;1.83;;
14007;SDS011;61651;45.508;12.232;2022-09-09T12:36:12;3.25;;;2.20;;
14007;SDS011;61651;45.508;12.232;2022-09-09T12:39:18;3.72;;;2.00;;
14007;SDS011;61651;45.508;12.232;2022-09-09T12:42:26;3.10;;;2.08;;
14007;SDS011;61651;45.508;12.232;2022-09-09T12:45:29;2.40;;;2.13;;
14007;SDS011;61651;45.508;12.232;2022-09-09T12:48:34;2.58;;;1.70;;
14007;SDS011;61651;45.508;12.232;2022-09-09T12:51:41;2.83;;;2.10;;
14007;SDS011;61651;45.508;12.232;2022-09-09T12:54:45;6.20;;;2.60;;
14007;SDS011;61651;45.508;12.232;2022-09-09T12:57:48;3.58;;;2.30;;
14007;SDS011;61651;45.508;12.232;2022-09-09T13:00:52;7.60;;;2.00;;
14007;SDS011;61651;45.508;12.232;2022-09-09T13:03:56;3.85;;;2.63;;
14007;SDS011;61651;45.508;12.232;2022-09-09T13:07:06;2.33;;;2.13;;
14007;SDS011;61651;45.508;12.232;2022-09-09T13:10:12;3.50;;;2.20;;
14007;SDS011;61651;45.508;12.232;2022-09-09T13:13:15;3.47;;;2.13;;
14007;SDS011;61651;45.508;12.232;2022-09-09T13:16:21;4.43;;;2.45;;
14007;SDS011;61651;45.508;12.232;2022-09-09T13:19:26;4.68;;;2.13;;
14007;SDS011;61651;45.508;12.232;2022-09-09T13:22:34;2.55;;;2.28;;
14007;SDS011;61651;45.508;12.232;2022-09-09T13:25:38;4.35;;;2.20;;
14007;SDS011;61651;45.508;12.232;2022-09-09T13:28:41;2.58;;;2.13;;
14007;SDS011;61651;45.508;12.232;2022-09-09T13:31:43;3.13;;;2.40;;
14007;SDS011;61651;45.508;12.232;2022-09-09T13:34:50;3.38;;;2.25;;
14007;SDS011;61651;45.508;12.232;2022-09-09T13:37:54;3.45;;;2.28;;
14007;SDS011;61651;45.508;12.232;2022-09-09T13:40:57;3.17;;;2.03;;
14007;SDS011;61651;45.508;12.232;2022-09-09T13:44:02;5.47;;;1.98;;
14007;SDS011;61651;45.508;12.232;2022-09-09T13:47:15;2.95;;;2.03;;
14007;SDS011;61651;45.508;12.232;2022-09-09T13:50:20;3.05;;;2.20;;
14007;SDS011;61651;45.508;12.232;2022-09-09T13:53:24;3.03;;;2.05;;
14007;SDS011;61651;45.508;12.232;2022-09-09T13:56:26;2.78;;;1.92;;
14007;SDS011;61651;45.508;12.232;2022-09-09T13:59:29;3.38;;;2.25;;
14007;SDS011;61651;45.508;12.232;2022-09-09T14:02:31;3.85;;;1.80;;
14007;SDS011;61651;45.508;12.232;2022-09-09T14:05:33;3.33;;;2.10;;
14007;SDS011;61651;45.508;12.232;2022-09-09T14:08:37;2.55;;;2.10;;
14007;SDS011;61651;45.508;12.232;2022-09-09T14:11:40;7.55;;;2.20;;
14007;SDS011;61651;45.508;12.232;2022-09-09T14:14:42;1.80;;;1.70;;
14007;SDS011;61651;45.508;12.232;2022-09-09T14:17:45;2.08;;;1.80;;
14007;SDS011;61651;45.508;12.232;2022-09-09T14:20:48;1.80;;;1.70;;
14007;SDS011;61651;45.508;12.232;2022-09-09T14:23:52;3.65;;;2.05;;
14007;SDS011;61651;45.508;12.232;2022-09-09T14:26:55;3.47;;;1.80;;
14007;SDS011;61651;45.508;12.232;2022-09-09T14:29:57;1.92;;;1.80;;
14007;SDS011;61651;45.508;12.232;2022-09-09T14:33:00;1.90;;;1.70;;
14007;SDS011;61651;45.508;12.232;2022-09-09T14:36:03;1.95;;;1.60;;
14007;SDS011;61651;45.508;12.232;2022-09-09T14:39:07;2.25;;;1.63;;
14007;SDS011;61651;45.508;12.232;2022-09-09T14:42:09;3.17;;;1.73;;
14007;SDS011;61651;45.508;12.232;2022-09-09T14:45:11;2.00;;;1.60;;
14007;SDS011;61651;45.508;12.232;2022-09-09T14:48:15;3.60;;;1.50;;
14007;SDS011;61651;45.508;12.232;2022-09-09T14:51:18;2.80;;;1.65;;
14007;SDS011;61651;45.508;12.232;2022-09-09T14:54:23;2.00;;;1.60;;
14007;SDS011;61651;45.508;12.232;2022-09-09T14:57:25;3.97;;;2.03;;
14007;SDS011;61651;45.508;12.232;2022-09-09T15:00:27;4.55;;;1.85;;
14007;SDS011;61651;45.508;12.232;2022-09-09T15:03:30;4.78;;;1.45;;
14007;SDS011;61651;45.508;12.232;2022-09-09T15:06:32;5.65;;;2.00;;
14007;SDS011;61651;45.508;12.232;2022-09-09T15:09:38;4.35;;;1.98;;
14007;SDS011;61651;45.508;12.232;2022-09-09T15:12:40;2.93;;;2.33;;
14007;SDS011;61651;45.508;12.232;2022-09-09T15:15:42;2.40;;;1.75;;
14007;SDS011;61651;45.508;12.232;2022-09-09T15:18:44;1.80;;;1.58;;
14007;SDS011;61651;45.508;12.232;2022-09-09T15:21:47;3.30;;;1.80;;
14007;SDS011;61651;45.508;12.232;2022-09-09T15:24:51;2.33;;;1.95;;
14007;SDS011;61651;45.508;12.232;2022-09-09T15:27:53;2.17;;;1.88;;
14007;SDS011;61651;45.508;12.232;2022-09-09T15:30:55;3.25;;;2.00;;
14007;SDS011;61651;45.508;12.232;2022-09-09T15:33:58;6.60;;;1.90;;
14007;SDS011;61651;45.508;12.232;2022-09-09T15:37:01;3.10;;;2.15;;
14007;SDS011;61651;45.508;12.232;2022-09-09T15:40:05;2.95;;;1.67;;
14007;SDS011;61651;45.508;12.232;2022-09-09T15:43:08;1.70;;;1.60;;
14007;SDS011;61651;45.508;12.232;2022-09-09T15:49:37;2.40;;;1.60;;
14007;SDS011;61651;45.508;12.232;2022-09-09T15:52:39;4.97;;;1.80;;
14007;SDS011;61651;45.508;12.232;2022-09-09T15:55:42;2.38;;;2.00;;
14007;SDS011;61651;45.508;12.232;2022-09-09T15:58:45;2.75;;;2.35;;
14007;SDS011;61651;45.508;12.232;2022-09-09T16:01:47;3.25;;;2.20;;
14007;SDS011;61651;45.508;12.232;2022-09-09T16:04:51;2.17;;;2.00;;
14007;SDS011;61651;45.508;12.232;2022-09-09T16:07:53;2.25;;;2.00;;
14007;SDS011;61651;45.508;12.232;2022-09-09T16:10:56;2.58;;;2.20;;
14007;SDS011;61651;45.508;12.232;2022-09-09T16:14:06;1.90;;;1.80;;
14007;SDS011;61651;45.508;12.232;2022-09-09T16:17:08;2.90;;;2.10;;
14007;SDS011;61651;45.508;12.232;2022-09-09T16:20:10;3.55;;;1.63;;
14007;SDS011;61651;45.508;12.232;2022-09-09T16:23:12;3.88;;;1.75;;
14007;SDS011;61651;45.508;12.232;2022-09-09T16:26:15;8.55;;;2.28;;
14007;SDS011;61651;45.508;12.232;2022-09-09T16:29:18;3.33;;;1.95;;
14007;SDS011;61651;45.508;12.232;2022-09-09T16:32:21;2.00;;;1.80;;
14007;SDS011;61651;45.508;12.232;2022-09-09T16:35:23;2.53;;;2.33;;
14007;SDS011;61651;45.508;12.232;2022-09-09T16:38:26;3.20;;;2.17;;
14007;SDS011;61651;45.508;12.232;2022-09-09T16:41:29;2.70;;;1.73;;
14007;SDS011;61651;45.508;12.232;2022-09-09T16:44:33;2.03;;;1.77;;
14007;SDS011;61651;45.508;12.232;2022-09-09T16:47:35;1.92;;;1.73;;
14007;SDS011;61651;45.508;12.232;2022-09-09T16:50:37;6.05;;;2.08;;
14007;SDS011;61651;45.508;12.232;2022-09-09T16:53:39;2.20;;;2.00;;
14007;SDS011;61651;45.508;12.232;2022-09-09T16:56:45;3.60;;;1.70;;
14007;SDS011;61651;45.508;12.232;2022-09-09T16:59:48;2.17;;;1.70;;
14007;SDS011;61651;45.508;12.232;2022-09-09T17:02:50;2.70;;;2.33;;
14007;SDS011;61651;45.508;12.232;2022-09-09T17:05:52;1.92;;;1.83;;
14007;SDS011;61651;45.508;12.232;2022-09-09T17:08:54;3.05;;;2.08;;
14007;SDS011;61651;45.508;12.232;2022-09-09T17:11:58;2.13;;;1.83;;
14007;SDS011;61651;45.508;12.232;2022-09-09T17:15:00;3.00;;;1.85;;
14007;SDS011;61651;45.508;12.232;2022-09-09T17:18:03;3.47;;;2.13;;
14007;SDS011;61651;45.508;12.232;2022-09-09T17:21:06;3.17;;;2.00;;
14007;SDS011;61651;45.508;12.232;2022-09-09T17:24:10;2.83;;;1.85;;
14007;SDS011;61651;45.508;12.232;2022-09-09T17:27:14;2.25;;;1.77;;
14007;SDS011;61651;45.508;12.232;2022-09-09T17:30:16;2.40;;;1.92;;
14007;SDS011;61651;45.508;12.232;2022-09-09T17:33:18;2.13;;;1.85;;
14007;SDS011;61651;45.508;12.232;2022-09-09T17:36:21;4.70;;;1.80;;
14007;SDS011;61651;45.508;12.232;2022-09-09T17:39:25;3.25;;;2.20;;
14007;SDS011;61651;45.508;12.232;2022-09-09T17:42:28;4.30;;;2.10;;
14007;SDS011;61651;45.508;12.232;2022-09-09T17:45:31;2.50;;;2.10;;
14007;SDS011;61651;45.508;12.232;2022-09-09T17:48:33;3.75;;;2.00;;
14007;SDS011;61651;45.508;12.232;2022-09-09T17:51:36;3.25;;;2.30;;
14007;SDS011;61651;45.508;12.232;2022-09-09T17:54:41;2.85;;;2.00;;
14007;SDS011;61651;45.508;12.232;2022-09-09T17:57:44;3.63;;;2.15;;
14007;SDS011;61651;45.508;12.232;2022-09-09T18:00:47;2.92;;;2.15;;
14007;SDS011;61651;45.508;12.232;2022-09-09T18:03:49;2.92;;;2.60;;
14007;SDS011;61651;45.508;12.232;2022-09-09T18:06:52;2.88;;;2.30;;
14007;SDS011;61651;45.508;12.232;2022-09-09T18:09:54;3.65;;;2.05;;
14007;SDS011;61651;45.508;12.232;2022-09-09T18:12:58;3.67;;;2.00;;
14007;SDS011;61651;45.508;12.232;2022-09-09T18:16:01;3.58;;;2.10;;
14007;SDS011;61651;45.508;12.232;2022-09-09T18:19:10;2.80;;;2.10;;
14007;SDS011;61651;45.508;12.232;2022-09-09T18:22:14;3.13;;;2.10;;
14007;SDS011;61651;45.508;12.232;2022-09-09T18:25:18;3.92;;;2.38;;
14007;SDS011;61651;45.508;12.232;2022-09-09T18:28:22;3.90;;;2.72;;